sensor_id;sensor_type;location;lat;lon;timestamp;P1;durP1;ratioP1;P2;durP2;ratioP2
26634;SDS011;14490;54.208;37.686;2023-10-31T00:02:02;6.55;;;3.88;;
26634;SDS011;14490;54.208;37.686;2023-10-31T00:04:31;3.25;;;2.78;;
26634;SDS011;14490;54.208;37.686;2023-10-31T00:06:58;6.05;;;2.90;;
26634;SDS011;14490;54.208;37.686;2023-10-31T00:09:25;4.53;;;2.97;;
26634;SDS011;14490;54.208;37.686;2023-10-31T00:11:53;10.50;;;3.17;;
26634;SDS011;14490;54.208;37.686;2023-10-31T00:14:20;4.35;;;2.92;;
26634;SDS011;14490;54.208;37.686;2023-10-31T00:16:47;8.02;;;3.45;;
26634;SDS011;14490;54.208;37.686;2023-10-31T00:19:15;4.72;;;3.03;;
26634;SDS011;14490;54.208;37.686;2023-10-31T00:21:43;6.03;;;3.03;;
26634;SDS011;14490;54.208;37.686;2023-10-31T00:24:10;6.95;;;3.65;;
26634;SDS011;14490;54.208;37.686;2023-10-31T00:26:38;8.18;;;3.13;;
26634;SDS011;14490;54.208;37.686;2023-10-31T00:29:05;4.38;;;3.67;;
26634;SDS011;14490;54.208;37.686;2023-10-31T00:31:32;4.22;;;3.17;;
26634;SDS011;14490;54.208;37.686;2023-10-31T00:34:00;7.30;;;3.50;;
26634;SDS011;14490;54.208;37.686;2023-10-31T00:36:27;5.97;;;3.20;;
26634;SDS011;14490;54.208;37.686;2023-10-31T00:38:56;6.90;;;3.45;;
26634;SDS011;14490;54.208;37.686;2023-10-31T00:41:23;5.55;;;3.13;;
26634;SDS011;14490;54.208;37.686;2023-10-31T00:43:50;4.50;;;3.17;;
26634;SDS011;14490;54.208;37.686;2023-10-31T00:46:18;7.20;;;3.20;;
26634;SDS011;14490;54.208;37.686;2023-10-31T00:48:45;4.72;;;3.25;;
26634;SDS011;14490;54.208;37.686;2023-10-31T00:51:12;4.50;;;2.85;;
26634;SDS011;14490;54.208;37.686;2023-10-31T00:53:39;6.43;;;3.53;;
26634;SDS011;14490;54.208;37.686;2023-10-31T00:56:08;3.72;;;2.58;;
26634;SDS011;14490;54.208;37.686;2023-10-31T00:58:35;5.53;;;3.28;;
26634;SDS011;14490;54.208;37.686;2023-10-31T01:01:03;6.53;;;3.28;;
26634;SDS011;14490;54.208;37.686;2023-10-31T01:03:30;5.20;;;2.83;;
26634;SDS011;14490;54.208;37.686;2023-10-31T01:05:57;5.50;;;3.10;;
26634;SDS011;14490;54.208;37.686;2023-10-31T01:08:24;5.93;;;3.00;;
26634;SDS011;14490;54.208;37.686;2023-10-31T01:10:52;5.05;;;3.30;;
26634;SDS011;14490;54.208;37.686;2023-10-31T01:13:20;17.10;;;5.55;;
26634;SDS011;14490;54.208;37.686;2023-10-31T01:15:48;3.75;;;2.90;;
26634;SDS011;14490;54.208;37.686;2023-10-31T01:18:15;6.70;;;3.08;;
26634;SDS011;14490;54.208;37.686;2023-10-31T01:20:42;5.22;;;3.15;;
26634;SDS011;14490;54.208;37.686;2023-10-31T01:23:09;4.47;;;2.97;;
26634;SDS011;14490;54.208;37.686;2023-10-31T01:25:37;6.45;;;3.20;;
26634;SDS011;14490;54.208;37.686;2023-10-31T01:28:04;5.32;;;3.83;;
26634;SDS011;14490;54.208;37.686;2023-10-31T01:30:33;5.20;;;3.88;;
26634;SDS011;14490;54.208;37.686;2023-10-31T01:33:00;6.18;;;3.28;;
26634;SDS011;14490;54.208;37.686;2023-10-31T01:35:27;4.20;;;3.20;;
26634;SDS011;14490;54.208;37.686;2023-10-31T01:37:54;8.98;;;3.40;;
26634;SDS011;14490;54.208;37.686;2023-10-31T01:40:21;4.90;;;3.65;;
26634;SDS011;14490;54.208;37.686;2023-10-31T01:42:49;7.13;;;3.15;;
26634;SDS011;14490;54.208;37.686;2023-10-31T01:45:16;6.00;;;3.22;;
26634;SDS011;14490;54.208;37.686;2023-10-31T01:47:45;6.68;;;3.53;;
26634;SDS011;14490;54.208;37.686;2023-10-31T01:50:15;6.82;;;2.80;;
26634;SDS011;14490;54.208;37.686;2023-10-31T01:52:43;4.18;;;3.10;;
26634;SDS011;14490;54.208;37.686;2023-10-31T01:55:11;5.00;;;3.28;;
26634;SDS011;14490;54.208;37.686;2023-10-31T01:57:39;3.85;;;2.92;;
26634;SDS011;14490;54.208;37.686;2023-10-31T02:00:07;5.93;;;3.65;;
26634;SDS011;14490;54.208;37.686;2023-10-31T02:02:35;6.47;;;3.15;;
26634;SDS011;14490;54.208;37.686;2023-10-31T02:05:06;4.57;;;3.75;;
26634;SDS011;14490;54.208;37.686;2023-10-31T02:07:33;4.70;;;3.50;;
26634;SDS011;14490;54.208;37.686;2023-10-31T02:10:01;4.65;;;3.42;;
26634;SDS011;14490;54.208;37.686;2023-10-31T02:12:31;5.88;;;3.55;;
26634;SDS011;14490;54.208;37.686;2023-10-31T02:14:59;5.20;;;3.85;;
26634;SDS011;14490;54.208;37.686;2023-10-31T02:17:27;5.72;;;3.13;;
26634;SDS011;14490;54.208;37.686;2023-10-31T02:19:57;6.45;;;3.40;;
26634;SDS011;14490;54.208;37.686;2023-10-31T02:22:26;6.82;;;3.85;;
26634;SDS011;14490;54.208;37.686;2023-10-31T02:24:53;6.22;;;3.25;;
26634;SDS011;14490;54.208;37.686;2023-10-31T02:27:21;4.20;;;3.10;;
26634;SDS011;14490;54.208;37.686;2023-10-31T02:29:48;4.40;;;3.28;;
26634;SDS011;14490;54.208;37.686;2023-10-31T02:32:16;6.38;;;3.75;;
26634;SDS011;14490;54.208;37.686;2023-10-31T02:34:44;3.83;;;3.40;;
26634;SDS011;14490;54.208;37.686;2023-10-31T02:37:11;5.88;;;3.25;;
26634;SDS011;14490;54.208;37.686;2023-10-31T02:39:40;6.13;;;3.42;;
26634;SDS011;14490;54.208;37.686;2023-10-31T02:42:08;6.32;;;3.40;;
26634;SDS011;14490;54.208;37.686;2023-10-31T02:44:36;4.93;;;3.85;;
26634;SDS011;14490;54.208;37.686;2023-10-31T02:47:03;4.20;;;3.60;;
26634;SDS011;14490;54.208;37.686;2023-10-31T02:49:31;4.35;;;3.67;;
26634;SDS011;14490;54.208;37.686;2023-10-31T02:51:58;4.70;;;3.75;;
26634;SDS011;14490;54.208;37.686;2023-10-31T02:54:25;5.00;;;3.50;;
26634;SDS011;14490;54.208;37.686;2023-10-31T02:56:54;6.00;;;3.45;;
26634;SDS011;14490;54.208;37.686;2023-10-31T02:59:21;5.90;;;4.15;;
26634;SDS011;14490;54.208;37.686;2023-10-31T03:01:52;6.93;;;3.78;;
26634;SDS011;14490;54.208;37.686;2023-10-31T03:04:19;4.78;;;3.70;;
26634;SDS011;14490;54.208;37.686;2023-10-31T03:06:46;6.03;;;3.50;;
26634;SDS011;14490;54.208;37.686;2023-10-31T03:09:13;9.27;;;4.18;;
26634;SDS011;14490;54.208;37.686;2023-10-31T03:11:41;5.43;;;3.80;;
26634;SDS011;14490;54.208;37.686;2023-10-31T03:14:10;11.15;;;4.05;;
26634;SDS011;14490;54.208;37.686;2023-10-31T03:16:37;4.90;;;4.43;;
26634;SDS011;14490;54.208;37.686;2023-10-31T03:19:04;6.15;;;4.07;;
26634;SDS011;14490;54.208;37.686;2023-10-31T03:21:32;4.40;;;3.95;;
26634;SDS011;14490;54.208;37.686;2023-10-31T03:23:59;5.60;;;3.67;;
26634;SDS011;14490;54.208;37.686;2023-10-31T03:26:27;4.93;;;4.38;;
26634;SDS011;14490;54.208;37.686;2023-10-31T03:28:54;6.40;;;4.90;;
26634;SDS011;14490;54.208;37.686;2023-10-31T03:31:24;7.22;;;4.10;;
26634;SDS011;14490;54.208;37.686;2023-10-31T03:33:51;6.97;;;4.30;;
26634;SDS011;14490;54.208;37.686;2023-10-31T03:36:18;6.30;;;4.47;;
26634;SDS011;14490;54.208;37.686;2023-10-31T03:38:46;5.63;;;3.85;;
26634;SDS011;14490;54.208;37.686;2023-10-31T03:41:13;8.95;;;4.50;;
26634;SDS011;14490;54.208;37.686;2023-10-31T03:43:40;7.60;;;4.72;;
26634;SDS011;14490;54.208;37.686;2023-10-31T03:46:11;5.20;;;4.40;;
26634;SDS011;14490;54.208;37.686;2023-10-31T03:48:39;6.55;;;5.28;;
26634;SDS011;14490;54.208;37.686;2023-10-31T03:51:08;5.63;;;4.88;;
26634;SDS011;14490;54.208;37.686;2023-10-31T03:53:35;5.90;;;4.65;;
26634;SDS011;14490;54.208;37.686;2023-10-31T03:56:03;7.30;;;4.68;;
26634;SDS011;14490;54.208;37.686;2023-10-31T03:58:45;8.05;;;5.07;;
26634;SDS011;14490;54.208;37.686;2023-10-31T04:01:12;8.85;;;5.75;;
26634;SDS011;14490;54.208;37.686;2023-10-31T04:03:40;8.68;;;5.43;;
26634;SDS011;14490;54.208;37.686;2023-10-31T04:06:08;10.32;;;4.82;;
26634;SDS011;14490;54.208;37.686;2023-10-31T04:08:35;7.40;;;5.90;;
26634;SDS011;14490;54.208;37.686;2023-10-31T04:11:02;10.75;;;5.60;;
26634;SDS011;14490;54.208;37.686;2023-10-31T04:13:30;6.03;;;5.07;;
26634;SDS011;14490;54.208;37.686;2023-10-31T04:15:57;6.90;;;5.07;;
26634;SDS011;14490;54.208;37.686;2023-10-31T04:18:24;8.52;;;5.70;;
26634;SDS011;14490;54.208;37.686;2023-10-31T04:20:53;8.23;;;5.70;;
26634;SDS011;14490;54.208;37.686;2023-10-31T04:23:23;15.27;;;6.72;;
26634;SDS011;14490;54.208;37.686;2023-10-31T04:25:50;12.82;;;5.90;;
26634;SDS011;14490;54.208;37.686;2023-10-31T04:28:18;13.02;;;6.05;;
26634;SDS011;14490;54.208;37.686;2023-10-31T04:30:45;11.82;;;6.25;;
26634;SDS011;14490;54.208;37.686;2023-10-31T04:33:13;6.22;;;5.63;;
26634;SDS011;14490;54.208;37.686;2023-10-31T04:35:40;8.43;;;5.75;;
26634;SDS011;14490;54.208;37.686;2023-10-31T04:38:09;7.57;;;6.72;;
26634;SDS011;14490;54.208;37.686;2023-10-31T04:40:36;8.43;;;6.22;;
26634;SDS011;14490;54.208;37.686;2023-10-31T04:43:03;10.27;;;7.93;;
26634;SDS011;14490;54.208;37.686;2023-10-31T04:45:31;16.10;;;7.07;;
26634;SDS011;14490;54.208;37.686;2023-10-31T04:47:58;13.32;;;7.03;;
26634;SDS011;14490;54.208;37.686;2023-10-31T04:50:25;15.35;;;7.18;;
26634;SDS011;14490;54.208;37.686;2023-10-31T04:52:52;14.88;;;7.18;;
26634;SDS011;14490;54.208;37.686;2023-10-31T04:55:21;14.02;;;6.72;;
26634;SDS011;14490;54.208;37.686;2023-10-31T04:57:48;12.95;;;7.53;;
26634;SDS011;14490;54.208;37.686;2023-10-31T05:00:16;13.90;;;7.70;;
26634;SDS011;14490;54.208;37.686;2023-10-31T05:02:43;14.50;;;6.78;;
26634;SDS011;14490;54.208;37.686;2023-10-31T05:05:11;15.77;;;7.32;;
26634;SDS011;14490;54.208;37.686;2023-10-31T05:07:38;13.23;;;7.57;;
26634;SDS011;14490;54.208;37.686;2023-10-31T05:10:06;14.75;;;8.25;;
26634;SDS011;14490;54.208;37.686;2023-10-31T05:12:36;15.10;;;7.60;;
26634;SDS011;14490;54.208;37.686;2023-10-31T05:15:03;13.88;;;7.88;;
26634;SDS011;14490;54.208;37.686;2023-10-31T05:17:32;11.80;;;7.85;;
26634;SDS011;14490;54.208;37.686;2023-10-31T05:20:00;12.43;;;7.68;;
26634;SDS011;14490;54.208;37.686;2023-10-31T05:22:27;11.43;;;6.68;;
26634;SDS011;14490;54.208;37.686;2023-10-31T05:24:54;9.73;;;7.28;;
26634;SDS011;14490;54.208;37.686;2023-10-31T05:27:22;12.50;;;6.72;;
26634;SDS011;14490;54.208;37.686;2023-10-31T05:29:51;14.82;;;7.25;;
26634;SDS011;14490;54.208;37.686;2023-10-31T05:32:18;9.98;;;6.30;;
26634;SDS011;14490;54.208;37.686;2023-10-31T05:34:45;9.50;;;7.22;;
26634;SDS011;14490;54.208;37.686;2023-10-31T05:37:12;9.82;;;6.78;;
26634;SDS011;14490;54.208;37.686;2023-10-31T05:39:40;9.77;;;6.13;;
26634;SDS011;14490;54.208;37.686;2023-10-31T05:42:07;12.48;;;7.78;;
26634;SDS011;14490;54.208;37.686;2023-10-31T05:44:34;13.32;;;8.13;;
26634;SDS011;14490;54.208;37.686;2023-10-31T05:47:03;10.35;;;7.28;;
26634;SDS011;14490;54.208;37.686;2023-10-31T05:49:35;13.00;;;7.63;;
26634;SDS011;14490;54.208;37.686;2023-10-31T05:52:04;11.25;;;7.15;;
26634;SDS011;14490;54.208;37.686;2023-10-31T05:54:32;12.30;;;7.00;;
26634;SDS011;14490;54.208;37.686;2023-10-31T05:56:59;12.75;;;7.50;;
26634;SDS011;14490;54.208;37.686;2023-10-31T05:59:26;12.38;;;7.35;;
26634;SDS011;14490;54.208;37.686;2023-10-31T06:01:52;9.10;;;7.15;;
26634;SDS011;14490;54.208;37.686;2023-10-31T06:04:21;13.85;;;7.75;;
26634;SDS011;14490;54.208;37.686;2023-10-31T06:06:50;10.27;;;7.22;;
26634;SDS011;14490;54.208;37.686;2023-10-31T06:09:26;13.65;;;6.65;;
26634;SDS011;14490;54.208;37.686;2023-10-31T06:11:53;11.82;;;7.07;;
26634;SDS011;14490;54.208;37.686;2023-10-31T06:14:20;9.20;;;6.68;;
26634;SDS011;14490;54.208;37.686;2023-10-31T06:16:48;13.68;;;7.25;;
26634;SDS011;14490;54.208;37.686;2023-10-31T06:19:15;10.93;;;7.32;;
26634;SDS011;14490;54.208;37.686;2023-10-31T06:21:43;13.05;;;8.13;;
26634;SDS011;14490;54.208;37.686;2023-10-31T06:24:11;13.23;;;7.20;;
26634;SDS011;14490;54.208;37.686;2023-10-31T06:26:38;13.18;;;7.03;;
26634;SDS011;14490;54.208;37.686;2023-10-31T06:29:05;12.63;;;7.97;;
26634;SDS011;14490;54.208;37.686;2023-10-31T06:31:32;9.68;;;7.20;;
26634;SDS011;14490;54.208;37.686;2023-10-31T06:34:00;11.80;;;6.68;;
26634;SDS011;14490;54.208;37.686;2023-10-31T06:36:29;13.25;;;6.15;;
26634;SDS011;14490;54.208;37.686;2023-10-31T06:38:58;11.68;;;6.95;;
26634;SDS011;14490;54.208;37.686;2023-10-31T06:41:25;8.82;;;6.28;;
26634;SDS011;14490;54.208;37.686;2023-10-31T06:43:53;16.60;;;7.28;;
26634;SDS011;14490;54.208;37.686;2023-10-31T06:46:20;8.02;;;7.00;;
26634;SDS011;14490;54.208;37.686;2023-10-31T06:48:48;10.30;;;5.60;;
26634;SDS011;14490;54.208;37.686;2023-10-31T06:51:16;14.50;;;7.60;;
26634;SDS011;14490;54.208;37.686;2023-10-31T06:53:43;10.27;;;6.25;;
26634;SDS011;14490;54.208;37.686;2023-10-31T06:56:12;8.57;;;6.60;;
26634;SDS011;14490;54.208;37.686;2023-10-31T06:58:39;14.63;;;7.60;;
26634;SDS011;14490;54.208;37.686;2023-10-31T07:01:06;19.83;;;7.50;;
26634;SDS011;14490;54.208;37.686;2023-10-31T07:03:34;11.98;;;7.57;;
26634;SDS011;14490;54.208;37.686;2023-10-31T07:06:01;12.63;;;7.97;;
26634;SDS011;14490;54.208;37.686;2023-10-31T07:08:29;12.60;;;7.53;;
26634;SDS011;14490;54.208;37.686;2023-10-31T07:10:56;15.25;;;8.43;;
26634;SDS011;14490;54.208;37.686;2023-10-31T07:13:24;13.45;;;7.90;;
26634;SDS011;14490;54.208;37.686;2023-10-31T07:15:52;10.90;;;8.45;;
26634;SDS011;14490;54.208;37.686;2023-10-31T07:18:19;13.05;;;8.82;;
26634;SDS011;14490;54.208;37.686;2023-10-31T07:20:46;12.93;;;7.78;;
26634;SDS011;14490;54.208;37.686;2023-10-31T07:23:13;11.23;;;7.95;;
26634;SDS011;14490;54.208;37.686;2023-10-31T07:25:41;10.35;;;7.55;;
26634;SDS011;14490;54.208;37.686;2023-10-31T07:28:08;12.40;;;7.13;;
26634;SDS011;14490;54.208;37.686;2023-10-31T07:30:37;8.25;;;6.65;;
26634;SDS011;14490;54.208;37.686;2023-10-31T07:33:04;10.57;;;7.38;;
26634;SDS011;14490;54.208;37.686;2023-10-31T07:35:31;17.25;;;8.00;;
26634;SDS011;14490;54.208;37.686;2023-10-31T07:37:59;12.30;;;7.35;;
26634;SDS011;14490;54.208;37.686;2023-10-31T07:40:26;12.23;;;7.32;;
26634;SDS011;14490;54.208;37.686;2023-10-31T07:42:53;10.10;;;7.35;;
26634;SDS011;14490;54.208;37.686;2023-10-31T07:45:20;11.60;;;8.20;;
26634;SDS011;14490;54.208;37.686;2023-10-31T07:47:49;13.15;;;7.38;;
26634;SDS011;14490;54.208;37.686;2023-10-31T07:50:16;11.43;;;8.07;;
26634;SDS011;14490;54.208;37.686;2023-10-31T07:52:43;8.85;;;7.60;;
26634;SDS011;14490;54.208;37.686;2023-10-31T07:55:12;18.42;;;7.03;;
26634;SDS011;14490;54.208;37.686;2023-10-31T07:57:39;12.18;;;7.50;;
26634;SDS011;14490;54.208;37.686;2023-10-31T08:00:09;15.27;;;7.70;;
26634;SDS011;14490;54.208;37.686;2023-10-31T08:02:38;10.13;;;8.07;;
26634;SDS011;14490;54.208;37.686;2023-10-31T08:05:07;9.95;;;7.25;;
26634;SDS011;14490;54.208;37.686;2023-10-31T08:07:39;16.00;;;9.20;;
26634;SDS011;14490;54.208;37.686;2023-10-31T08:10:06;15.25;;;7.97;;
26634;SDS011;14490;54.208;37.686;2023-10-31T08:12:34;9.82;;;7.82;;
26634;SDS011;14490;54.208;37.686;2023-10-31T08:17:53;14.68;;;8.07;;
26634;SDS011;14490;54.208;37.686;2023-10-31T08:20:21;10.73;;;7.88;;
26634;SDS011;14490;54.208;37.686;2023-10-31T08:22:49;10.70;;;7.95;;
26634;SDS011;14490;54.208;37.686;2023-10-31T08:25:16;11.68;;;7.85;;
26634;SDS011;14490;54.208;37.686;2023-10-31T08:27:43;11.55;;;8.10;;
26634;SDS011;14490;54.208;37.686;2023-10-31T08:30:13;10.18;;;8.10;;
26634;SDS011;14490;54.208;37.686;2023-10-31T08:32:41;12.35;;;8.43;;
26634;SDS011;14490;54.208;37.686;2023-10-31T08:35:08;10.15;;;7.05;;
26634;SDS011;14490;54.208;37.686;2023-10-31T08:37:36;10.23;;;7.65;;
26634;SDS011;14490;54.208;37.686;2023-10-31T08:40:04;19.65;;;7.63;;
26634;SDS011;14490;54.208;37.686;2023-10-31T08:42:33;10.88;;;7.50;;
26634;SDS011;14490;54.208;37.686;2023-10-31T08:45:00;9.82;;;7.25;;
26634;SDS011;14490;54.208;37.686;2023-10-31T08:47:29;10.05;;;7.40;;
26634;SDS011;14490;54.208;37.686;2023-10-31T08:49:56;9.95;;;7.63;;
26634;SDS011;14490;54.208;37.686;2023-10-31T08:52:24;12.25;;;7.38;;
26634;SDS011;14490;54.208;37.686;2023-10-31T08:54:52;10.52;;;6.47;;
26634;SDS011;14490;54.208;37.686;2023-10-31T08:57:19;14.27;;;7.05;;
26634;SDS011;14490;54.208;37.686;2023-10-31T08:59:47;16.13;;;8.70;;
26634;SDS011;14490;54.208;37.686;2023-10-31T09:02:14;15.38;;;9.50;;
26634;SDS011;14490;54.208;37.686;2023-10-31T09:04:41;10.73;;;8.00;;
26634;SDS011;14490;54.208;37.686;2023-10-31T09:07:08;13.88;;;7.72;;
26634;SDS011;14490;54.208;37.686;2023-10-31T09:09:36;10.20;;;7.35;;
26634;SDS011;14490;54.208;37.686;2023-10-31T09:12:05;14.90;;;7.15;;
26634;SDS011;14490;54.208;37.686;2023-10-31T09:14:32;12.00;;;8.93;;
26634;SDS011;14490;54.208;37.686;2023-10-31T09:17:00;10.02;;;7.22;;
26634;SDS011;14490;54.208;37.686;2023-10-31T09:19:27;8.90;;;7.13;;
26634;SDS011;14490;54.208;37.686;2023-10-31T09:21:55;21.33;;;9.93;;
26634;SDS011;14490;54.208;37.686;2023-10-31T09:24:22;15.10;;;9.23;;
26634;SDS011;14490;54.208;37.686;2023-10-31T09:26:49;12.52;;;9.75;;
26634;SDS011;14490;54.208;37.686;2023-10-31T09:29:18;9.65;;;7.78;;
26634;SDS011;14490;54.208;37.686;2023-10-31T09:31:45;8.77;;;7.22;;
26634;SDS011;14490;54.208;37.686;2023-10-31T09:34:12;11.45;;;7.30;;
26634;SDS011;14490;54.208;37.686;2023-10-31T09:36:39;11.90;;;6.45;;
26634;SDS011;14490;54.208;37.686;2023-10-31T09:39:06;13.93;;;6.53;;
26634;SDS011;14490;54.208;37.686;2023-10-31T09:41:34;11.38;;;6.60;;
26634;SDS011;14490;54.208;37.686;2023-10-31T09:44:01;11.60;;;6.93;;
26634;SDS011;14490;54.208;37.686;2023-10-31T09:46:30;12.23;;;5.75;;
26634;SDS011;14490;54.208;37.686;2023-10-31T09:48:57;7.30;;;5.50;;
26634;SDS011;14490;54.208;37.686;2023-10-31T09:51:25;7.90;;;5.80;;
26634;SDS011;14490;54.208;37.686;2023-10-31T09:53:54;9.13;;;6.05;;
26634;SDS011;14490;54.208;37.686;2023-10-31T09:56:21;10.48;;;6.40;;
26634;SDS011;14490;54.208;37.686;2023-10-31T09:58:49;9.40;;;6.60;;
26634;SDS011;14490;54.208;37.686;2023-10-31T10:01:17;18.67;;;7.70;;
26634;SDS011;14490;54.208;37.686;2023-10-31T10:03:46;22.63;;;9.90;;
26634;SDS011;14490;54.208;37.686;2023-10-31T10:06:13;25.17;;;9.10;;
26634;SDS011;14490;54.208;37.686;2023-10-31T10:08:41;23.48;;;9.43;;
26634;SDS011;14490;54.208;37.686;2023-10-31T10:11:08;25.67;;;10.85;;
26634;SDS011;14490;54.208;37.686;2023-10-31T10:13:36;29.10;;;11.02;;
26634;SDS011;14490;54.208;37.686;2023-10-31T10:16:03;25.17;;;11.13;;
26634;SDS011;14490;54.208;37.686;2023-10-31T10:18:31;29.00;;;12.07;;
26634;SDS011;14490;54.208;37.686;2023-10-31T10:23:53;16.65;;;8.48;;
26634;SDS011;14490;54.208;37.686;2023-10-31T10:26:20;23.52;;;8.45;;
26634;SDS011;14490;54.208;37.686;2023-10-31T10:28:50;20.42;;;9.43;;
26634;SDS011;14490;54.208;37.686;2023-10-31T10:31:18;16.75;;;8.60;;
26634;SDS011;14490;54.208;37.686;2023-10-31T10:33:45;16.23;;;8.32;;
26634;SDS011;14490;54.208;37.686;2023-10-31T10:36:13;17.35;;;8.40;;
26634;SDS011;14490;54.208;37.686;2023-10-31T10:38:42;17.30;;;8.00;;
26634;SDS011;14490;54.208;37.686;2023-10-31T10:41:13;21.33;;;8.52;;
26634;SDS011;14490;54.208;37.686;2023-10-31T10:43:44;24.33;;;8.82;;
26634;SDS011;14490;54.208;37.686;2023-10-31T10:46:14;28.90;;;10.55;;
26634;SDS011;14490;54.208;37.686;2023-10-31T10:48:45;20.92;;;8.90;;
26634;SDS011;14490;54.208;37.686;2023-10-31T10:51:15;15.45;;;8.27;;
26634;SDS011;14490;54.208;37.686;2023-10-31T10:53:52;18.70;;;8.95;;
26634;SDS011;14490;54.208;37.686;2023-10-31T10:56:25;26.42;;;13.23;;
26634;SDS011;14490;54.208;37.686;2023-10-31T10:58:59;31.67;;;15.90;;
26634;SDS011;14490;54.208;37.686;2023-10-31T11:01:30;19.83;;;9.85;;
26634;SDS011;14490;54.208;37.686;2023-10-31T11:03:58;23.67;;;10.80;;
26634;SDS011;14490;54.208;37.686;2023-10-31T11:06:26;24.95;;;9.70;;
26634;SDS011;14490;54.208;37.686;2023-10-31T11:08:55;21.20;;;9.40;;
26634;SDS011;14490;54.208;37.686;2023-10-31T11:11:22;20.70;;;9.45;;
26634;SDS011;14490;54.208;37.686;2023-10-31T11:13:49;22.42;;;10.02;;
26634;SDS011;14490;54.208;37.686;2023-10-31T11:16:20;27.48;;;9.82;;
26634;SDS011;14490;54.208;37.686;2023-10-31T11:18:56;25.02;;;10.02;;
26634;SDS011;14490;54.208;37.686;2023-10-31T11:21:27;22.20;;;11.07;;
26634;SDS011;14490;54.208;37.686;2023-10-31T11:24:06;25.98;;;10.80;;
26634;SDS011;14490;54.208;37.686;2023-10-31T11:26:35;22.23;;;10.52;;
26634;SDS011;14490;54.208;37.686;2023-10-31T11:29:17;16.08;;;8.70;;
26634;SDS011;14490;54.208;37.686;2023-10-31T11:31:45;19.80;;;8.50;;
26634;SDS011;14490;54.208;37.686;2023-10-31T11:34:15;12.68;;;5.93;;
26634;SDS011;14490;54.208;37.686;2023-10-31T11:36:44;10.18;;;5.80;;
26634;SDS011;14490;54.208;37.686;2023-10-31T11:39:14;8.85;;;6.40;;
26634;SDS011;14490;54.208;37.686;2023-10-31T11:41:47;12.43;;;7.18;;
26634;SDS011;14490;54.208;37.686;2023-10-31T11:44:16;11.70;;;6.57;;
26634;SDS011;14490;54.208;37.686;2023-10-31T11:46:44;9.60;;;6.10;;
26634;SDS011;14490;54.208;37.686;2023-10-31T11:49:15;14.75;;;6.13;;
26634;SDS011;14490;54.208;37.686;2023-10-31T11:51:44;10.15;;;6.53;;
26634;SDS011;14490;54.208;37.686;2023-10-31T11:54:21;11.25;;;6.00;;
26634;SDS011;14490;54.208;37.686;2023-10-31T11:56:50;10.05;;;5.85;;
26634;SDS011;14490;54.208;37.686;2023-10-31T11:59:18;11.32;;;7.38;;
26634;SDS011;14490;54.208;37.686;2023-10-31T12:01:45;11.88;;;6.20;;
26634;SDS011;14490;54.208;37.686;2023-10-31T12:04:20;16.02;;;6.60;;
26634;SDS011;14490;54.208;37.686;2023-10-31T12:06:56;9.65;;;5.45;;
26634;SDS011;14490;54.208;37.686;2023-10-31T12:09:26;8.45;;;4.68;;
26634;SDS011;14490;54.208;37.686;2023-10-31T12:11:54;10.10;;;5.15;;
26634;SDS011;14490;54.208;37.686;2023-10-31T12:14:21;8.73;;;4.75;;
26634;SDS011;14490;54.208;37.686;2023-10-31T12:16:48;10.88;;;5.32;;
26634;SDS011;14490;54.208;37.686;2023-10-31T12:19:15;9.52;;;4.82;;
26634;SDS011;14490;54.208;37.686;2023-10-31T12:21:43;6.82;;;5.20;;
26634;SDS011;14490;54.208;37.686;2023-10-31T12:24:15;8.63;;;4.72;;
26634;SDS011;14490;54.208;37.686;2023-10-31T12:26:45;10.20;;;5.18;;
26634;SDS011;14490;54.208;37.686;2023-10-31T12:29:15;9.10;;;4.28;;
26634;SDS011;14490;54.208;37.686;2023-10-31T12:31:45;6.22;;;3.88;;
26634;SDS011;14490;54.208;37.686;2023-10-31T12:34:14;10.38;;;4.28;;
26634;SDS011;14490;54.208;37.686;2023-10-31T12:36:41;10.05;;;4.70;;
26634;SDS011;14490;54.208;37.686;2023-10-31T12:39:11;12.02;;;4.78;;
26634;SDS011;14490;54.208;37.686;2023-10-31T12:41:39;5.72;;;4.25;;
26634;SDS011;14490;54.208;37.686;2023-10-31T12:44:08;7.13;;;3.72;;
26634;SDS011;14490;54.208;37.686;2023-10-31T12:46:38;8.25;;;3.83;;
26634;SDS011;14490;54.208;37.686;2023-10-31T12:49:10;10.93;;;3.67;;
26634;SDS011;14490;54.208;37.686;2023-10-31T12:51:38;6.68;;;4.63;;
26634;SDS011;14490;54.208;37.686;2023-10-31T12:54:28;11.32;;;4.00;;
26634;SDS011;14490;54.208;37.686;2023-10-31T12:57:00;9.32;;;4.63;;
26634;SDS011;14490;54.208;37.686;2023-10-31T12:59:30;8.52;;;5.05;;
26634;SDS011;14490;54.208;37.686;2023-10-31T13:01:58;11.02;;;4.90;;
26634;SDS011;14490;54.208;37.686;2023-10-31T13:04:26;6.47;;;4.57;;
26634;SDS011;14490;54.208;37.686;2023-10-31T13:06:57;8.88;;;5.03;;
26634;SDS011;14490;54.208;37.686;2023-10-31T13:09:29;7.60;;;5.03;;
26634;SDS011;14490;54.208;37.686;2023-10-31T13:12:04;8.90;;;5.45;;
26634;SDS011;14490;54.208;37.686;2023-10-31T13:14:34;14.63;;;7.78;;
26634;SDS011;14490;54.208;37.686;2023-10-31T13:17:04;11.82;;;6.45;;
26634;SDS011;14490;54.208;37.686;2023-10-31T13:19:31;10.18;;;6.45;;
26634;SDS011;14490;54.208;37.686;2023-10-31T13:21:58;14.75;;;7.10;;
26634;SDS011;14490;54.208;37.686;2023-10-31T13:24:26;10.65;;;6.97;;
26634;SDS011;14490;54.208;37.686;2023-10-31T13:26:53;15.18;;;7.65;;
26634;SDS011;14490;54.208;37.686;2023-10-31T13:29:20;13.02;;;6.97;;
26634;SDS011;14490;54.208;37.686;2023-10-31T13:31:52;12.35;;;7.00;;
26634;SDS011;14490;54.208;37.686;2023-10-31T13:34:20;16.17;;;6.95;;
26634;SDS011;14490;54.208;37.686;2023-10-31T13:36:48;16.73;;;7.68;;
26634;SDS011;14490;54.208;37.686;2023-10-31T13:39:24;12.63;;;7.13;;
26634;SDS011;14490;54.208;37.686;2023-10-31T13:41:51;9.18;;;5.97;;
26634;SDS011;14490;54.208;37.686;2023-10-31T13:44:19;13.65;;;6.18;;
26634;SDS011;14490;54.208;37.686;2023-10-31T13:46:49;11.23;;;6.38;;
26634;SDS011;14490;54.208;37.686;2023-10-31T13:49:21;9.45;;;7.68;;
26634;SDS011;14490;54.208;37.686;2023-10-31T13:51:49;13.80;;;8.63;;
26634;SDS011;14490;54.208;37.686;2023-10-31T13:54:16;19.83;;;8.70;;
26634;SDS011;14490;54.208;37.686;2023-10-31T13:56:44;18.65;;;8.05;;
26634;SDS011;14490;54.208;37.686;2023-10-31T13:59:11;10.65;;;7.05;;
26634;SDS011;14490;54.208;37.686;2023-10-31T14:01:39;16.55;;;8.80;;
26634;SDS011;14490;54.208;37.686;2023-10-31T14:04:09;24.00;;;10.75;;
26634;SDS011;14490;54.208;37.686;2023-10-31T14:09:05;20.02;;;8.73;;
26634;SDS011;14490;54.208;37.686;2023-10-31T14:11:34;19.63;;;8.50;;
26634;SDS011;14490;54.208;37.686;2023-10-31T14:14:01;24.80;;;7.85;;
26634;SDS011;14490;54.208;37.686;2023-10-31T14:16:31;20.25;;;7.18;;
26634;SDS011;14490;54.208;37.686;2023-10-31T14:18:59;19.35;;;10.13;;
26634;SDS011;14490;54.208;37.686;2023-10-31T14:21:28;31.33;;;13.30;;
26634;SDS011;14490;54.208;37.686;2023-10-31T14:23:55;28.48;;;14.93;;
26634;SDS011;14490;54.208;37.686;2023-10-31T14:26:23;37.30;;;18.08;;
26634;SDS011;14490;54.208;37.686;2023-10-31T14:28:50;33.28;;;16.88;;
26634;SDS011;14490;54.208;37.686;2023-10-31T14:31:18;35.13;;;16.60;;
26634;SDS011;14490;54.208;37.686;2023-10-31T14:33:46;41.15;;;17.65;;
26634;SDS011;14490;54.208;37.686;2023-10-31T14:36:13;26.17;;;12.25;;
26634;SDS011;14490;54.208;37.686;2023-10-31T14:38:42;28.35;;;15.27;;
26634;SDS011;14490;54.208;37.686;2023-10-31T14:41:10;28.27;;;15.13;;